createdAt,value
2023-01-20T00:00:11.835Z,99.90
2023-01-20T00:02:42.069Z,99.90
2023-01-20T00:05:11.484Z,99.90
2023-01-20T00:07:40.585Z,43.70
2023-01-20T00:10:10.849Z,1.00
2023-01-20T00:12:39.605Z,4.10
2023-01-20T00:15:10.428Z,1.00
2023-01-20T00:17:39.221Z,99.90
2023-01-20T00:20:11.331Z,99.90
2023-01-20T00:22:42.541Z,1.00
2023-01-20T00:25:12.407Z,1.00
2023-01-20T00:27:41.308Z,1.00
2023-01-20T00:30:11.567Z,96.50
2023-01-20T00:32:45.009Z,99.90
2023-01-20T00:35:15.710Z,99.90
2023-01-20T00:37:45.114Z,99.90
2023-01-20T00:40:14.261Z,99.90
2023-01-20T00:42:43.034Z,99.90
2023-01-20T00:45:12.896Z,99.90
2023-01-20T00:47:41.809Z,99.90
2023-01-20T00:50:11.614Z,99.90
2023-01-20T00:52:41.806Z,99.90
2023-01-20T00:55:53.771Z,99.90
2023-01-20T00:58:22.846Z,99.90
2023-01-20T01:00:53.128Z,1.00
2023-01-20T01:03:22.618Z,1.00
2023-01-20T01:09:06.898Z,1.00
2023-01-20T01:11:35.766Z,1.00
2023-01-20T01:14:04.757Z,22.20
2023-01-20T01:16:33.743Z,1.00
2023-01-20T01:19:02.687Z,1.00
2023-01-20T01:21:31.609Z,1.00
2023-01-20T01:24:00.414Z,1.00
2023-01-20T01:26:30.707Z,1.00
2023-01-20T01:28:59.536Z,99.90
2023-01-20T01:31:28.493Z,1.00
2023-01-20T01:33:57.443Z,1.00
2023-01-20T01:36:26.355Z,1.00
2023-01-20T01:38:59.099Z,1.00
2023-01-20T01:41:29.835Z,99.90
2023-01-20T01:44:08.584Z,92.10
2023-01-20T01:46:38.157Z,1.00
2023-01-20T01:49:10.277Z,47.20
2023-01-20T01:51:41.856Z,99.90
2023-01-20T01:54:14.285Z,1.00
2023-01-20T01:56:46.072Z,1.00
2023-01-20T01:59:16.659Z,1.00
2023-01-20T02:02:39.973Z,1.00
2023-01-20T02:05:17.216Z,99.90
2023-01-20T02:07:49.201Z,99.90
2023-01-20T02:10:18.710Z,1.00
2023-01-20T02:12:52.074Z,1.00
2023-01-20T02:15:26.161Z,1.00
2023-01-20T02:18:30.117Z,31.10
2023-01-20T02:21:39.384Z,14.20
2023-01-20T02:24:37.633Z,19.50
2023-01-20T02:27:11.528Z,70.90
2023-01-20T02:30:23.484Z,1.00
2023-01-20T02:32:58.412Z,1.00
2023-01-20T02:35:35.043Z,27.40
2023-01-20T02:38:15.276Z,1.00
2023-01-20T02:40:53.738Z,2.60
2023-01-20T02:43:28.935Z,99.90
2023-01-20T02:46:03.226Z,99.90
2023-01-20T02:48:40.012Z,1.00
2023-01-20T02:51:13.554Z,47.50
2023-01-20T02:53:49.633Z,1.00
2023-01-20T02:56:20.560Z,1.00
2023-01-20T02:58:52.253Z,31.20
2023-01-20T03:01:26.772Z,74.00
2023-01-20T03:04:01.099Z,1.00
2023-01-20T03:06:33.515Z,1.00
2023-01-20T03:09:04.276Z,99.90
2023-01-20T03:11:36.215Z,1.00
2023-01-20T03:14:08.286Z,1.00
2023-01-20T03:16:37.625Z,1.00
2023-01-20T03:19:08.063Z,1.00
2023-01-20T03:21:37.485Z,1.00
2023-01-20T03:24:07.559Z,34.20
2023-01-20T03:26:36.383Z,1.00
2023-01-20T03:29:07.754Z,1.00
2023-01-20T03:31:39.778Z,99.90
2023-01-20T03:34:13.788Z,99.90
2023-01-20T03:36:44.122Z,80.70
2023-01-20T03:39:13.345Z,1.00
2023-01-20T03:41:52.373Z,99.90
2023-01-20T03:44:26.742Z,40.80
2023-01-20T03:47:04.829Z,59.80
2023-01-20T03:49:40.358Z,99.90
2023-01-20T03:52:16.091Z,99.90
2023-01-20T03:54:49.208Z,99.90
2023-01-20T03:57:22.585Z,1.00
2023-01-20T03:59:53.754Z,87.30
2023-01-20T04:02:24.362Z,1.00
2023-01-20T04:04:56.089Z,1.00
2023-01-20T04:07:27.093Z,3.20
2023-01-20T04:09:59.587Z,1.00
2023-01-20T04:12:28.363Z,1.00
2023-01-20T04:14:57.043Z,1.00
2023-01-20T04:17:29.616Z,99.90
2023-01-20T04:20:10.653Z,1.00
2023-01-20T04:22:45.680Z,1.00
2023-01-20T04:25:18.953Z,1.00
2023-01-20T04:27:47.704Z,1.00
2023-01-20T04:30:16.985Z,1.00
2023-01-20T04:32:45.663Z,99.90
2023-01-20T04:35:19.379Z,95.10
2023-01-20T04:37:48.190Z,44.60
2023-01-20T04:40:17.120Z,99.90
2023-01-20T04:42:45.842Z,20.00
2023-01-20T04:45:17.939Z,91.00
2023-01-20T04:47:46.691Z,50.20
2023-01-20T04:50:17.299Z,1.00
2023-01-20T04:52:46.440Z,54.30
2023-01-20T04:55:15.679Z,99.90
2023-01-20T04:57:44.576Z,99.90
2023-01-20T05:00:18.801Z,99.90
2023-01-20T05:02:47.715Z,99.90
2023-01-20T05:05:18.153Z,99.90
2023-01-20T05:07:46.844Z,1.00
2023-01-20T05:10:15.596Z,1.00
2023-01-20T05:12:44.274Z,1.00
2023-01-20T05:15:13.489Z,1.00
2023-01-20T05:17:42.523Z,1.00
2023-01-20T05:20:12.877Z,1.00
2023-01-20T05:22:43.034Z,1.00
2023-01-20T05:25:11.855Z,1.00
2023-01-20T05:27:40.725Z,1.00
2023-01-20T05:30:10.865Z,99.90
2023-01-20T05:32:39.807Z,99.90
2023-01-20T05:35:10.001Z,99.90
2023-01-20T05:37:38.748Z,99.90
2023-01-20T05:40:10.735Z,99.90
2023-01-20T05:42:39.720Z,71.00
2023-01-20T05:45:10.410Z,5.30
2023-01-20T05:47:39.131Z,12.10
2023-01-20T05:50:08.920Z,28.80
2023-01-20T05:52:37.730Z,1.00
2023-01-20T05:55:07.096Z,1.00
2023-01-20T05:57:37.332Z,1.00
2023-01-20T06:00:11.050Z,1.00
2023-01-20T06:02:42.146Z,99.90
2023-01-20T06:05:14.922Z,99.90
2023-01-20T06:07:48.349Z,99.90
2023-01-20T06:10:22.353Z,99.90
2023-01-20T06:13:00.245Z,99.90
2023-01-20T06:15:52.099Z,1.00
2023-01-20T06:18:22.787Z,99.90
2023-01-20T06:20:55.676Z,20.40
2023-01-20T06:23:29.164Z,99.90
2023-01-20T06:26:08.197Z,1.00
2023-01-20T06:28:38.375Z,1.00
2023-01-20T06:31:09.066Z,33.30
2023-01-20T06:33:37.991Z,75.20
2023-01-20T06:36:08.059Z,48.50
2023-01-20T06:38:37.476Z,99.90
2023-01-20T06:41:10.832Z,99.90
2023-01-20T06:43:42.235Z,99.90
2023-01-20T06:46:14.563Z,99.90
2023-01-20T06:48:44.129Z,99.90
2023-01-20T06:51:14.734Z,99.90
2023-01-20T06:53:44.164Z,99.90
2023-01-20T06:56:14.149Z,99.90
2023-01-20T06:58:45.101Z,99.90
2023-01-20T07:01:15.701Z,99.90
2023-01-20T07:03:45.096Z,99.90
2023-01-20T07:06:19.075Z,99.90
2023-01-20T07:08:49.426Z,1.00
2023-01-20T07:11:18.449Z,1.00
2023-01-20T07:13:48.634Z,1.00
2023-01-20T07:16:18.436Z,1.00
2023-01-20T07:18:50.259Z,99.90
2023-01-20T07:21:19.633Z,99.90
2023-01-20T07:23:49.048Z,1.00
2023-01-20T07:26:19.679Z,99.90
2023-01-20T07:28:50.003Z,99.90
2023-01-20T07:31:20.401Z,99.90
2023-01-20T07:33:49.375Z,99.90
2023-01-20T07:36:18.933Z,99.90
2023-01-20T07:38:49.559Z,99.90
2023-01-20T07:41:20.238Z,99.90
2023-01-20T07:43:52.984Z,99.90
2023-01-20T07:46:22.076Z,99.90
2023-01-20T07:48:50.769Z,1.00
2023-01-20T07:51:19.696Z,1.00
2023-01-20T07:53:49.621Z,99.90
2023-01-20T07:56:20.005Z,1.00
2023-01-20T07:58:50.874Z,99.90
2023-01-20T08:01:21.437Z,99.90
2023-01-20T08:03:50.662Z,99.90
2023-01-20T08:06:21.167Z,99.90
2023-01-20T08:08:50.424Z,1.00
2023-01-20T08:11:20.573Z,1.00
2023-01-20T08:13:51.173Z,99.90
2023-01-20T08:16:20.548Z,99.90
2023-01-20T08:18:50.143Z,99.90
2023-01-20T08:21:21.730Z,99.90
2023-01-20T08:23:51.429Z,61.40
2023-01-20T08:26:21.032Z,39.20
2023-01-20T08:28:51.691Z,1.00
2023-01-20T08:31:24.777Z,1.00
2023-01-20T08:33:55.519Z,1.00
2023-01-20T08:36:27.432Z,1.00
2023-01-20T08:38:58.144Z,1.00
2023-01-20T08:41:29.495Z,1.00
2023-01-20T08:44:02.025Z,1.00
2023-01-20T08:46:30.844Z,1.00
2023-01-20T08:49:02.891Z,1.00
2023-01-20T08:51:33.624Z,1.00
2023-01-20T08:54:02.907Z,1.00
2023-01-20T08:56:32.304Z,1.00
2023-01-20T08:59:02.812Z,1.00
2023-01-20T09:01:33.829Z,1.00
2023-01-20T09:04:06.268Z,1.00
2023-01-20T09:06:49.432Z,1.00
2023-01-20T09:09:20.955Z,1.00
2023-01-20T09:11:52.211Z,1.00
2023-01-20T09:14:24.673Z,1.00
2023-01-20T09:17:00.165Z,1.00
2023-01-20T09:19:30.789Z,1.00
2023-01-20T09:22:00.116Z,1.00
2023-01-20T09:24:28.993Z,1.00
2023-01-20T09:26:58.272Z,1.00
2023-01-20T09:29:28.487Z,1.00
2023-01-20T09:31:59.284Z,1.00
2023-01-20T09:34:31.191Z,1.00
2023-01-20T09:37:21.629Z,1.00
2023-01-20T09:40:08.724Z,1.00
2023-01-20T09:43:09.472Z,1.00
2023-01-20T09:45:46.119Z,1.00
2023-01-20T09:48:37.757Z,1.00
2023-01-20T09:51:28.971Z,1.00
2023-01-20T09:54:03.524Z,1.00
2023-01-20T09:56:36.902Z,1.00
2023-01-20T09:59:12.798Z,1.00
2023-01-20T10:01:47.382Z,1.00
2023-01-20T10:04:21.049Z,1.00
2023-01-20T10:06:54.475Z,1.00
2023-01-20T10:09:32.754Z,1.00
2023-01-20T10:12:08.840Z,1.00
2023-01-20T10:14:43.381Z,1.00
2023-01-20T10:17:19.255Z,1.00
2023-01-20T10:19:56.486Z,1.00
2023-01-20T10:22:31.256Z,1.00
2023-01-20T10:25:06.914Z,1.00
2023-01-20T10:27:44.881Z,1.00
2023-01-20T10:30:16.126Z,1.00
2023-01-20T10:32:54.821Z,1.00
2023-01-20T10:35:27.546Z,1.00
2023-01-20T10:37:58.893Z,1.00
2023-01-20T10:40:36.673Z,1.00
2023-01-20T10:43:13.274Z,1.00
2023-01-20T10:46:02.136Z,1.00
2023-01-20T10:49:02.317Z,1.00
2023-01-20T10:51:40.515Z,1.00
2023-01-20T10:54:23.618Z,1.00
2023-01-20T10:56:54.802Z,1.00
2023-01-20T10:59:30.633Z,1.00
2023-01-20T11:02:11.923Z,1.00
2023-01-20T11:04:43.537Z,1.00
2023-01-20T11:07:18.151Z,1.00
2023-01-20T11:09:49.399Z,1.00
2023-01-20T11:12:20.472Z,1.00
2023-01-20T11:14:50.281Z,1.00
2023-01-20T11:17:20.889Z,1.00
2023-01-20T11:19:53.712Z,1.00
2023-01-20T11:22:31.772Z,1.00
2023-01-20T11:25:02.156Z,1.00
2023-01-20T11:27:36.435Z,1.00
2023-01-20T11:30:10.081Z,1.00
2023-01-20T11:32:40.713Z,1.00
2023-01-20T11:35:24.898Z,1.00
2023-01-20T11:37:54.111Z,1.00
2023-01-20T11:40:25.353Z,1.00
2023-01-20T11:42:55.312Z,1.00
2023-01-20T11:45:31.773Z,1.00
2023-01-20T11:48:06.958Z,1.00
2023-01-20T11:50:41.423Z,1.00
2023-01-20T11:53:19.676Z,1.00
2023-01-20T11:55:54.351Z,1.00
2023-01-20T11:58:25.451Z,1.00
2023-01-20T12:01:01.163Z,1.00
2023-01-20T12:03:52.067Z,1.00
2023-01-20T12:06:27.161Z,1.00
2023-01-20T12:09:00.890Z,1.00
2023-01-20T12:11:35.595Z,1.00
2023-01-20T12:14:28.876Z,1.00
2023-01-20T12:17:10.672Z,1.00
2023-01-20T12:19:50.272Z,1.00
2023-01-20T12:22:26.284Z,1.00
2023-01-20T12:25:09.235Z,1.00
2023-01-20T12:27:45.677Z,1.00
2023-01-20T12:30:39.725Z,1.00
2023-01-20T12:33:22.312Z,1.00
2023-01-20T12:36:25.297Z,1.00
2023-01-20T12:39:21.336Z,1.00
2023-01-20T12:42:34.514Z,1.00
2023-01-20T12:45:11.933Z,1.00
2023-01-20T12:47:57.070Z,1.00
2023-01-20T12:50:33.803Z,1.00
2023-01-20T12:53:20.275Z,1.00
2023-01-20T12:56:01.563Z,1.00
2023-01-20T12:58:44.955Z,1.00
2023-01-20T13:01:43.003Z,1.00
2023-01-20T13:04:50.971Z,1.00
2023-01-20T13:07:52.035Z,1.00
2023-01-20T13:10:50.187Z,1.00
2023-01-20T13:13:56.021Z,1.00
2023-01-20T13:16:33.921Z,1.00
2023-01-20T13:19:10.333Z,1.00
2023-01-20T13:21:41.517Z,1.00
2023-01-20T13:24:19.256Z,1.00
2023-01-20T13:26:49.773Z,1.00
2023-01-20T13:29:42.047Z,1.00
2023-01-20T13:32:33.479Z,1.00
2023-01-20T13:35:03.407Z,1.00
2023-01-20T13:37:59.547Z,1.00
2023-01-20T13:40:57.159Z,1.00
2023-01-20T13:43:59.517Z,1.00
2023-01-20T13:46:58.570Z,1.00
2023-01-20T13:50:03.022Z,9.60
2023-01-20T13:53:25.261Z,33.20
2023-01-20T13:56:14.625Z,27.20
2023-01-20T13:58:46.711Z,91.80
2023-01-20T14:01:36.096Z,99.90
2023-01-20T14:04:08.547Z,99.90
2023-01-20T14:06:46.084Z,99.90
2023-01-20T14:09:22.347Z,99.90
2023-01-20T14:11:53.027Z,99.90
2023-01-20T14:14:23.372Z,99.90
2023-01-20T14:16:52.677Z,99.90
2023-01-20T14:19:27.828Z,99.90
2023-01-20T14:21:58.450Z,99.90
2023-01-20T14:24:29.708Z,99.90
2023-01-20T14:27:10.195Z,99.90
2023-01-20T14:29:41.026Z,99.90
2023-01-20T14:32:22.159Z,99.90
2023-01-20T14:34:53.815Z,99.90
2023-01-20T14:37:28.870Z,99.90
2023-01-20T14:40:00.350Z,99.90
2023-01-20T14:42:31.586Z,99.90
2023-01-20T14:45:00.596Z,99.90
2023-01-20T14:47:30.587Z,99.90
2023-01-20T14:50:01.089Z,99.90
2023-01-20T14:52:32.798Z,99.90
2023-01-20T14:55:01.668Z,99.90
2023-01-20T14:57:32.152Z,99.90
2023-01-20T15:00:18.188Z,99.90
2023-01-20T15:03:09.249Z,99.90
2023-01-20T15:05:43.469Z,99.90
2023-01-20T15:08:26.041Z,99.90
2023-01-20T15:11:21.658Z,99.90
2023-01-20T15:14:10.513Z,99.90
2023-01-20T15:16:49.726Z,99.90
2023-01-20T15:19:33.051Z,99.90
2023-01-20T15:22:27.631Z,99.90
2023-01-20T15:24:56.809Z,1.00
2023-01-20T15:27:32.473Z,1.00
2023-01-20T15:30:04.272Z,1.00
2023-01-20T15:32:33.200Z,1.00
2023-01-20T15:35:02.626Z,1.00
2023-01-20T15:37:32.930Z,1.00
2023-01-20T15:40:01.947Z,1.00
2023-01-20T15:42:30.987Z,1.00
2023-01-20T15:45:00.347Z,1.00
2023-01-20T15:47:31.497Z,1.00
2023-01-20T15:50:00.330Z,1.00
2023-01-20T15:52:29.225Z,1.00
2023-01-20T15:54:59.415Z,1.00
2023-01-20T15:57:28.199Z,99.90
2023-01-20T15:59:57.228Z,78.20
2023-01-20T16:02:26.047Z,99.90
2023-01-20T16:04:55.067Z,99.90
2023-01-20T16:07:24.119Z,99.90
2023-01-20T16:09:53.032Z,99.90
2023-01-20T16:12:23.521Z,99.90
2023-01-20T16:14:52.347Z,99.90
2023-01-20T16:17:22.719Z,99.90
2023-01-20T16:19:52.427Z,1.00
2023-01-20T16:22:21.567Z,1.00
2023-01-20T16:24:51.559Z,1.00
2023-01-20T16:27:23.786Z,99.90
2023-01-20T16:29:53.385Z,99.90
2023-01-20T16:32:24.687Z,99.90
2023-01-20T16:34:53.569Z,1.00
2023-01-20T16:37:22.300Z,99.90
2023-01-20T16:39:51.192Z,99.90
2023-01-20T16:42:21.993Z,99.90
2023-01-20T16:44:54.812Z,1.00
2023-01-20T16:47:24.939Z,99.90
2023-01-20T16:49:53.789Z,1.00
2023-01-20T16:52:23.394Z,99.90
2023-01-20T16:54:52.788Z,1.00
2023-01-20T16:57:21.738Z,99.90
2023-01-20T16:59:52.100Z,99.90
2023-01-20T17:02:21.138Z,99.90
2023-01-20T17:04:50.989Z,99.90
2023-01-20T17:07:20.349Z,4.20
2023-01-20T17:09:49.445Z,99.90
2023-01-20T17:12:19.156Z,1.00
2023-01-20T17:14:48.354Z,91.90
2023-01-20T17:17:19.333Z,99.90
2023-01-20T17:19:48.402Z,1.00
2023-01-20T17:22:18.699Z,99.90
2023-01-20T17:24:47.638Z,1.00
2023-01-20T17:27:17.518Z,99.90
2023-01-20T17:29:46.474Z,99.90
2023-01-20T17:32:16.340Z,99.90
2023-01-20T17:34:47.033Z,99.90
2023-01-20T17:37:17.468Z,99.90
2023-01-20T17:39:46.844Z,1.00
2023-01-20T17:42:17.684Z,99.90
2023-01-20T17:44:47.278Z,1.00
2023-01-20T17:47:17.564Z,1.00
2023-01-20T17:49:48.799Z,1.00
2023-01-20T17:52:20.315Z,1.00
2023-01-20T17:54:49.998Z,1.00
2023-01-20T17:57:18.813Z,99.90
2023-01-20T17:59:49.367Z,99.90
2023-01-20T18:02:21.745Z,99.90
2023-01-20T18:04:52.553Z,1.00
2023-01-20T18:07:22.230Z,1.00
2023-01-20T18:09:52.385Z,85.90
2023-01-20T18:12:22.687Z,1.00
2023-01-20T18:14:55.092Z,1.00
2023-01-20T18:17:24.021Z,99.90
2023-01-20T18:19:58.257Z,91.60
2023-01-20T18:22:28.224Z,1.00
2023-01-20T18:24:58.533Z,1.00
2023-01-20T18:27:29.661Z,4.90
2023-01-20T18:29:59.086Z,22.00
2023-01-20T18:32:29.933Z,8.50
2023-01-20T18:35:02.028Z,99.90
2023-01-20T18:37:33.391Z,99.90
2023-01-20T18:40:03.220Z,99.90
2023-01-20T18:42:32.842Z,99.90
2023-01-20T18:45:01.817Z,99.90
2023-01-20T18:47:32.384Z,99.90
2023-01-20T18:50:03.493Z,99.90
2023-01-20T18:52:34.565Z,99.90
2023-01-20T18:55:03.831Z,99.90
2023-01-20T18:57:34.311Z,99.90
2023-01-20T19:00:05.505Z,99.90
2023-01-20T19:02:39.034Z,99.90
2023-01-20T19:05:12.129Z,99.90
2023-01-20T19:07:42.024Z,99.90
2023-01-20T19:10:13.624Z,99.90
2023-01-20T19:12:44.929Z,99.90
2023-01-20T19:15:17.185Z,1.00
2023-01-20T19:17:48.483Z,1.00
2023-01-20T19:20:21.664Z,1.00
2023-01-20T19:22:52.428Z,99.90
2023-01-20T19:25:30.141Z,99.90
2023-01-20T19:28:01.282Z,99.90
2023-01-20T19:30:31.718Z,99.90
2023-01-20T19:33:01.744Z,99.90
2023-01-20T19:35:42.463Z,56.70
2023-01-20T19:38:13.736Z,99.90
2023-01-20T19:40:43.636Z,99.90
2023-01-20T19:43:14.033Z,99.90
2023-01-20T19:45:46.224Z,1.00
2023-01-20T19:48:16.923Z,1.00
2023-01-20T19:50:49.758Z,1.00
2023-01-20T19:53:24.701Z,1.00
2023-01-20T19:55:56.781Z,99.90
2023-01-20T19:58:26.894Z,99.90
2023-01-20T20:00:57.741Z,1.00
2023-01-20T20:03:29.901Z,1.00
2023-01-20T20:06:01.054Z,1.00
2023-01-20T20:08:31.140Z,1.00
2023-01-20T20:11:10.746Z,1.00
2023-01-20T20:13:40.857Z,1.00
2023-01-20T20:16:13.807Z,1.00
2023-01-20T20:18:48.399Z,1.00
2023-01-20T20:21:23.776Z,1.00
2023-01-20T20:23:55.422Z,1.00
2023-01-20T20:26:28.577Z,99.90
2023-01-20T20:28:59.095Z,1.00
2023-01-20T20:31:31.172Z,1.00
2023-01-20T20:34:02.074Z,1.00
2023-01-20T20:36:34.538Z,1.00
2023-01-20T20:39:06.050Z,1.00
2023-01-20T20:41:37.385Z,1.00
2023-01-20T20:44:09.256Z,1.00
2023-01-20T20:46:39.802Z,1.00
2023-01-20T20:49:10.783Z,1.00
2023-01-20T20:51:42.389Z,1.00
2023-01-20T20:54:17.536Z,1.00
2023-01-20T20:56:47.593Z,1.00
2023-01-20T20:59:21.752Z,1.00
2023-01-20T21:01:52.677Z,1.00
2023-01-20T21:04:23.464Z,1.00
2023-01-20T21:06:59.253Z,1.00
2023-01-20T21:09:29.885Z,1.00
2023-01-20T21:12:00.193Z,1.00
2023-01-20T21:14:29.997Z,1.00
2023-01-20T21:16:59.981Z,1.00
2023-01-20T21:19:29.413Z,1.00
2023-01-20T21:22:00.217Z,1.00
2023-01-20T21:24:31.839Z,1.00
2023-01-20T21:27:04.948Z,1.00
2023-01-20T21:29:34.389Z,1.00
2023-01-20T21:32:03.357Z,1.00
2023-01-20T21:34:32.261Z,1.00
2023-01-20T21:37:03.146Z,1.00
2023-01-20T21:39:32.838Z,1.00
2023-01-20T21:42:01.760Z,1.00
2023-01-20T21:44:31.186Z,1.00
2023-01-20T21:47:02.773Z,1.00
2023-01-20T21:49:54.487Z,1.00
2023-01-20T21:52:45.814Z,1.00
2023-01-20T21:55:19.538Z,1.00
2023-01-20T21:57:51.219Z,1.00
2023-01-20T22:00:20.873Z,1.00
2023-01-20T22:02:50.135Z,11.50
2023-01-20T22:05:19.269Z,3.50
2023-01-20T22:07:49.508Z,1.00
2023-01-20T22:10:19.415Z,1.00
2023-01-20T22:12:48.139Z,1.00
2023-01-20T22:15:17.025Z,1.00
2023-01-20T22:17:46.280Z,1.00
2023-01-20T22:20:15.345Z,1.00
2023-01-20T22:22:44.572Z,1.00
2023-01-20T22:25:15.274Z,1.00
2023-01-20T22:27:44.165Z,1.00
2023-01-20T22:30:14.205Z,1.00
2023-01-20T22:32:43.295Z,1.00
2023-01-20T22:35:12.231Z,1.00
2023-01-20T22:37:41.078Z,1.00
2023-01-20T22:40:11.133Z,12.60
2023-01-20T22:42:41.343Z,18.90
2023-01-20T22:45:11.729Z,15.10
2023-01-20T22:47:40.506Z,23.10
2023-01-20T22:50:11.703Z,23.40
2023-01-20T22:52:40.515Z,24.00
2023-01-20T22:55:10.064Z,44.00
2023-01-20T22:57:38.868Z,51.80
2023-01-20T23:00:12.509Z,46.50
2023-01-20T23:02:41.333Z,31.30
2023-01-20T23:05:10.596Z,24.20
2023-01-20T23:07:39.597Z,33.90
2023-01-20T23:10:09.668Z,33.30
2023-01-20T23:12:38.559Z,24.30
2023-01-20T23:15:09.835Z,18.20
2023-01-20T23:17:38.683Z,21.00
2023-01-20T23:20:08.457Z,21.20
2023-01-20T23:22:37.292Z,38.10
2023-01-20T23:25:08.649Z,41.40
2023-01-20T23:27:37.461Z,35.80
2023-01-20T23:30:07.272Z,27.70
2023-01-20T23:32:37.699Z,1.00
2023-01-20T23:35:07.523Z,1.00
2023-01-20T23:37:36.326Z,1.00
2023-01-20T23:40:05.516Z,1.00
2023-01-20T23:42:34.362Z,1.00
2023-01-20T23:45:03.192Z,1.00
2023-01-20T23:47:32.091Z,1.00
2023-01-20T23:50:02.349Z,1.00
2023-01-20T23:52:31.113Z,1.00
2023-01-20T23:54:59.926Z,1.00
2023-01-20T23:57:28.826Z,1.00
2023-01-20T23:59:57.605Z,1.00
